WetterOnline ( http://www.wetteronline.de )

Wetter aktuell Essen

Aktuelles Wetter: Essen (161m)

6-stündlich | Neueste Meldungen
Ortszeit Temperatur Wetter
Fr, 27.04. 2:00 6.8° C leicht bewölkt
Do, 26.04. 20:00 9.8° C bedeckt
Do, 26.04. 14:00 12.2° C wolkig
Do, 26.04. 8:00 6.5° C Regen
Do, 26.04. 2:00 8.4° C leicht bewölkt
Mi, 25.04. 20:00 12.1° C bedeckt
Mi, 25.04. 14:00 12.8° C bedeckt
Mi, 25.04. 8:00 11.6° C Sprühregen
Ortszeit Temperatur Wetter
Fr, 27.04. 4:10 5.6° C bewölkt
Fr, 27.04. 4:00 5.6° C wolkig
Fr, 27.04. 3:50 5.6° C wolkig
Fr, 27.04. 3:40 5.2° C wolkig
Fr, 27.04. 3:30 6.3° C wolkig
Fr, 27.04. 3:20 6.3° C wolkig
Fr, 27.04. 3:00 5.8° C wolkig
Fr, 27.04. 2:30 6.3° C wolkig
Fr, 27.04. 2:00 6.8° C leicht bewölkt
Fr, 27.04. 1:30 7.0° C wolkenlos
Fr, 27.04. 1:00 7.4° C wolkenlos
Ortszeit Relative Feuchte Sichtweite
Fr, 27.04. 2:00 85% 28 km
Do, 26.04. 20:00 71% 40 km
Do, 26.04. 14:00 55% 30 km
Do, 26.04. 8:00 91% 6 km
Do, 26.04. 2:00 72% 45 km
Mi, 25.04. 20:00 62% 40 km
Mi, 25.04. 14:00 67% 30 km
Mi, 25.04. 8:00 94% 8 km
Ortszeit Relative Feuchte Sichtweite
Fr, 27.04. 4:10 88% -
Fr, 27.04. 4:00 88% 25 km
Fr, 27.04. 3:50 88% -
Fr, 27.04. 3:40 90% -
Fr, 27.04. 3:30 85% 30 km
Fr, 27.04. 3:20 85% -
Fr, 27.04. 3:00 89% 21 km
Fr, 27.04. 2:30 87% 23 km
Fr, 27.04. 2:00 85% 28 km
Fr, 27.04. 1:30 83% 29 km
Fr, 27.04. 1:00 82% 30 km
Ortszeit Niederschlagsmenge Niederschlagsart
Fr, 27.04. 2:00 0.1 l/m2 in 6 Std. Regen
Do, 26.04. 20:00 3 l/m2 in 12 Std. Regen
Do, 26.04. 14:00 2 l/m2 in 6 Std. Regen
Do, 26.04. 8:00 5 l/m2 in 12 Std. Regen
Do, 26.04. 2:00 2 l/m2 in 6 Std. Regen
Mi, 25.04. 20:00 4 l/m2 in 12 Std. Regen
Mi, 25.04. 14:00 3 l/m2 in 6 Std. Regen
Mi, 25.04. 8:00 1 l/m2 in 12 Std. Regen
Ortszeit Niederschlagsmenge Niederschlagsart
Fr, 27.04. 4:10 keine Meldung -
Fr, 27.04. 4:00 0.0 l/m2 in 1 Std. -
Fr, 27.04. 3:50 keine Meldung -
Fr, 27.04. 3:40 keine Meldung -
Fr, 27.04. 3:30 0.0 l/m2 in 1 Std. -
Fr, 27.04. 3:20 keine Meldung -
Fr, 27.04. 3:00 0.0 l/m2 in 1 Std. -
Fr, 27.04. 2:30 0.0 l/m2 in 1 Std. -
Fr, 27.04. 2:00 0.0 l/m2 in 1 Std. Regen
Fr, 27.04. 1:30 0.0 l/m2 in 1 Std. -
Fr, 27.04. 1:00 0.0 l/m2 in 1 Std. -
Ortszeit Stärke Spitze Richtung
km/h Bft. km/h Grad Sektor
Fr, 27.04. 2:00 6 1 15 180° S
Do, 26.04. 20:00 7 2 58 290° W
Do, 26.04. 14:00 18 3 40 240° SW
Do, 26.04. 8:00 17 3 43 250° W
Do, 26.04. 2:00 17 3 33 220° SW
Mi, 25.04. 20:00 14 3 36 250° W
Mi, 25.04. 14:00 14 3 43 270° W
Mi, 25.04. 8:00 22 4 47 240° SW
Ortszeit Stärke Spitze Richtung
km/h Bft. km/h Grad Sektor
Fr, 27.04. 4:10 7 2 - 170° S
Fr, 27.04. 4:00 6 1 11 180° S
Fr, 27.04. 3:50 6 1 - 180° S
Fr, 27.04. 3:40 6 1 - 190° S
Fr, 27.04. 3:30 7 2 11 200° S
Fr, 27.04. 3:20 7 2 - 200° S
Fr, 27.04. 3:00 6 1 9 190° S
Fr, 27.04. 2:30 6 1 9 190° S
Fr, 27.04. 2:00 6 1 9 180° S
Fr, 27.04. 1:30 6 1 9 180° S
Fr, 27.04. 1:00 7 2 7 180° S
Ortszeit Untergrenze Bedeckung Gattung
total tief tief mittel hoch
Fr, 27.04. 2:00 9000 m 5/8 0/8 - - -
Do, 26.04. 20:00 1200 m 8/8 8/8 - - -
Do, 26.04. 14:00 1110 m 6/8 6/8 - - -
Do, 26.04. 8:00 30 m 7/8 7/8 - - -
Do, 26.04. 2:00 2400 m 4/8 2/8 - - -
Mi, 25.04. 20:00 2700 m 8/8 8/8 - - -
Mi, 25.04. 14:00 870 m 8/8 8/8 - - -
Mi, 25.04. 8:00 30 m 7/8 7/8 - - -
Ortszeit Bedeckungsgrad in Achtel und Wolkenuntergrenze
Fr, 27.04. 4:10 7(5100m) 8(8700m) 8(9000m)
Fr, 27.04. 4:00 3(5400m) 7(9000m) 7(9000m)
Fr, 27.04. 3:50 3(5400m) 7(9000m) 7(9000m)
Fr, 27.04. 3:40 2(5700m) 7(9000m) 7(10500m)
Fr, 27.04. 3:30 2(6000m) 4(9000m) 6(9000m)
Fr, 27.04. 3:20 2(6000m) 4(9000m) 6(9000m)
Fr, 27.04. 3:00 7(9000m) 8(9000m)
Fr, 27.04. 2:30 7(9000m) 8(9000m)
Fr, 27.04. 2:00 5(9000m) 7(9000m)
Fr, 27.04. 1:30 keine Wolken
Fr, 27.04. 1:00 1(2100m)
Ortszeit Luftdruck NN (hPa) Tendenz (hPa in 3 Std.)
Fr, 27.04. 2:00 1017 - 0,3
Do, 26.04. 20:00 1017 + 0,1
Do, 26.04. 14:00 1016 + 0,3
Do, 26.04. 8:00 1015 + 1,5
Do, 26.04. 2:00 1014 + 0,2
Mi, 25.04. 20:00 1012 - 0,3
Mi, 25.04. 14:00 1012 + 1,0
Mi, 25.04. 8:00 1009 + 0,5
Ortszeit Luftdruck NN (hPa) Tendenz (hPa in 3 Std.)
Fr, 27.04. 4:10 1016 keine Meldung
Fr, 27.04. 4:00 1017 - 0,9
Fr, 27.04. 3:50 1017 keine Meldung
Fr, 27.04. 3:40 1017 keine Meldung
Fr, 27.04. 3:30 1017 - 0,8
Fr, 27.04. 3:20 1017 keine Meldung
Fr, 27.04. 3:00 1017 - 0,7
Fr, 27.04. 2:30 1017 - 0,4
Fr, 27.04. 2:00 1017 - 0,3
Fr, 27.04. 1:30 1017 - 0,2
Fr, 27.04. 1:00 1017 - 0,4
Ortszeit Schneehöhe (cm)
Fr, 27.04. 2:00 0
Do, 26.04. 20:00 0
Do, 26.04. 14:00 0
Do, 26.04. 8:00 0
Do, 26.04. 2:00 0
Mi, 25.04. 20:00 0
Mi, 25.04. 14:00 0
Mi, 25.04. 8:00 0
Ortszeit Schneehöhe (cm)
Fr, 27.04. 4:10 0
Fr, 27.04. 4:00 0
Fr, 27.04. 3:50 0
Fr, 27.04. 3:40 0
Fr, 27.04. 3:30 0
Fr, 27.04. 3:20 0
Fr, 27.04. 3:00 0
Fr, 27.04. 2:30 0
Fr, 27.04. 2:00 0
Fr, 27.04. 1:30 0
Fr, 27.04. 1:00 0
Link zu dieser Seite / Seite empfehlen

Das Wetter in ...